createdAt,value
2022-08-06T00:00:27.393Z,68.56
2022-08-06T00:02:57.303Z,68.77
2022-08-06T00:05:27.747Z,69.04
2022-08-06T00:08:02.232Z,69.36
2022-08-06T00:10:32.373Z,69.56
2022-08-06T00:13:05.380Z,69.99
2022-08-06T00:16:06.594Z,70.30
2022-08-06T00:18:26.367Z,70.61
2022-08-06T00:20:56.161Z,71.02
2022-08-06T00:23:25.779Z,71.36
2022-08-06T00:25:56.166Z,71.67
2022-08-06T00:28:32.129Z,72.06
2022-08-06T00:31:06.387Z,72.44
2022-08-06T00:33:44.108Z,72.77
2022-08-06T00:36:24.892Z,73.17
2022-08-06T00:38:55.107Z,73.48
2022-08-06T00:41:27.272Z,73.68
2022-08-06T00:44:04.148Z,74.18
2022-08-06T00:46:33.890Z,74.29
2022-08-06T00:49:09.226Z,74.57
2022-08-06T00:51:51.029Z,74.77
2022-08-06T00:54:28.643Z,75.06
2022-08-06T00:57:07.968Z,75.29
2022-08-06T00:59:44.064Z,75.58
2022-08-06T01:02:15.374Z,75.38
2022-08-06T01:04:45.778Z,75.22
2022-08-06T01:07:15.969Z,75.61
2022-08-06T01:09:57.466Z,75.83
2022-08-06T01:12:33.959Z,76.10
2022-08-06T01:15:15.839Z,76.54
2022-08-06T01:17:56.160Z,76.76
2022-08-06T01:22:01.096Z,77.12
2022-08-06T01:23:44.879Z,77.34
2022-08-06T01:26:38.748Z,77.56
2022-08-06T01:29:14.275Z,77.80
2022-08-06T01:31:50.922Z,78.15
2022-08-06T01:34:31.326Z,78.31
2022-08-06T01:37:07.759Z,78.77
2022-08-06T01:39:54.087Z,78.94
2022-08-06T01:42:35.018Z,78.92
2022-08-06T01:45:11.779Z,79.27
2022-08-06T01:47:54.019Z,79.39
2022-08-06T01:50:30.348Z,79.64
2022-08-06T01:53:02.202Z,79.69
2022-08-06T01:55:56.014Z,79.75
2022-08-06T01:58:30.951Z,80.01
2022-08-06T02:01:06.922Z,80.03
2022-08-06T02:03:50.095Z,80.13
2022-08-06T02:06:31.077Z,80.35
2022-08-06T02:09:22.003Z,80.35
2022-08-06T02:12:02.359Z,80.37
2022-08-06T02:14:35.466Z,80.76
2022-08-06T02:17:14.176Z,80.82
2022-08-06T02:20:07.990Z,80.98
2022-08-06T02:22:42.553Z,81.10
2022-08-06T02:25:22.478Z,81.24
2022-08-06T02:27:59.971Z,81.56
2022-08-06T02:30:36.551Z,81.79
2022-08-06T02:33:10.811Z,81.98
2022-08-06T02:35:43.811Z,82.14
2022-08-06T02:38:18.177Z,82.09
2022-08-06T02:40:57.462Z,82.43
2022-08-06T02:43:35.320Z,82.52
2022-08-06T02:46:12.039Z,82.69
2022-08-06T02:48:49.973Z,82.73
2022-08-06T02:52:10.320Z,82.78
2022-08-06T02:54:16.190Z,83.09
2022-08-06T02:56:49.833Z,83.30
2022-08-06T02:59:24.284Z,83.27
2022-08-06T03:01:54.332Z,83.25
2022-08-06T03:04:32.831Z,83.31
2022-08-06T03:07:26.822Z,83.22
2022-08-06T03:09:57.611Z,83.58
2022-08-06T03:12:30.456Z,83.50
2022-08-06T03:15:06.881Z,83.64
2022-08-06T03:17:42.129Z,83.73
2022-08-06T03:20:25.429Z,84.11
2022-08-06T03:22:56.758Z,84.06
2022-08-06T03:25:27.005Z,84.16
2022-08-06T03:28:02.159Z,84.17
2022-08-06T03:30:34.268Z,84.23
2022-08-06T03:33:28.705Z,84.27
2022-08-06T03:36:01.558Z,84.23
2022-08-06T03:38:33.527Z,84.37
2022-08-06T03:41:03.710Z,84.19
2022-08-06T03:43:56.071Z,84.16
2022-08-06T03:46:27.362Z,84.40
2022-08-06T03:48:58.406Z,84.19
2022-08-06T03:51:53.045Z,84.52
2022-08-06T03:54:28.207Z,84.27
2022-08-06T03:57:01.079Z,84.11
2022-08-06T03:59:57.441Z,84.26
2022-08-06T04:02:36.740Z,84.26
2022-08-06T04:05:16.195Z,84.35
2022-08-06T04:07:54.261Z,84.31
2022-08-06T04:10:33.808Z,84.11
2022-08-06T04:13:38.089Z,84.05
2022-08-06T04:15:58.092Z,83.98
2022-08-06T04:18:29.873Z,83.99
2022-08-06T04:21:20.859Z,84.07
2022-08-06T04:23:54.883Z,83.93
2022-08-06T04:26:28.707Z,83.75
2022-08-06T04:28:59.943Z,83.67
2022-08-06T04:32:13.551Z,83.63
2022-08-06T04:34:27.390Z,83.58
2022-08-06T04:36:58.955Z,83.88
2022-08-06T04:39:37.652Z,83.80
2022-08-06T04:42:10.392Z,83.71
2022-08-06T04:44:44.676Z,83.48
2022-08-06T04:47:20.258Z,83.47
2022-08-06T04:50:01.519Z,83.33
2022-08-06T04:52:49.205Z,83.41
2022-08-06T04:55:33.189Z,83.25
2022-08-06T04:58:11.225Z,83.27
2022-08-06T05:01:00.113Z,83.17
2022-08-06T05:04:03.292Z,82.89
2022-08-06T05:06:24.139Z,82.79
2022-08-06T05:08:58.370Z,82.72
2022-08-06T05:11:34.763Z,82.63
2022-08-06T05:14:13.577Z,82.57
2022-08-06T05:16:52.461Z,82.55
2022-08-06T05:19:29.924Z,82.22
2022-08-06T05:22:06.060Z,82.04
2022-08-06T05:25:00.581Z,81.83
2022-08-06T05:27:54.668Z,81.67
2022-08-06T05:30:25.186Z,81.43
2022-08-06T05:32:59.278Z,81.36
2022-08-06T05:35:40.505Z,81.19
2022-08-06T05:38:31.328Z,81.06
2022-08-06T05:41:02.418Z,80.86
2022-08-06T05:43:59.058Z,80.65
2022-08-06T05:46:27.439Z,80.25
2022-08-06T05:49:11.753Z,80.16
2022-08-06T05:51:52.781Z,79.85
2022-08-06T05:54:27.979Z,79.79
2022-08-06T05:57:04.723Z,79.62
2022-08-06T05:59:57.992Z,79.44
2022-08-06T06:02:31.601Z,79.19
2022-08-06T06:06:06.662Z,79.11
2022-08-06T06:08:09.094Z,78.68
2022-08-06T06:10:53.411Z,78.49
2022-08-06T06:13:39.634Z,78.16
2022-08-06T06:16:28.082Z,77.72
2022-08-06T06:19:15.303Z,77.26
2022-08-06T06:21:51.955Z,76.80
2022-08-06T06:24:26.648Z,76.33
2022-08-06T06:27:00.174Z,75.58
2022-08-06T06:30:07.169Z,74.83
2022-08-06T06:32:44.996Z,72.76
2022-08-06T06:35:22.407Z,70.77
2022-08-06T06:37:57.412Z,67.72
2022-08-06T06:41:00.171Z,63.65
2022-08-06T06:43:44.748Z,59.35
2022-08-06T06:46:37.327Z,55.39
2022-08-06T06:50:01.270Z,50.91
2022-08-06T06:52:14.176Z,48.22
2022-08-06T06:55:05.377Z,44.79
2022-08-06T06:57:49.071Z,42.13
2022-08-06T07:00:44.419Z,40.38
2022-08-06T07:03:12.647Z,38.17
2022-08-06T07:06:04.427Z,36.25
2022-08-06T07:08:42.147Z,35.01
2022-08-06T07:11:12.859Z,35.15
2022-08-06T07:13:51.392Z,34.66
2022-08-06T07:16:35.604Z,33.88
2022-08-06T07:19:10.410Z,32.64
2022-08-06T07:21:47.734Z,31.58
2022-08-06T07:24:38.042Z,30.63
2022-08-06T07:27:14.525Z,30.43
2022-08-06T07:29:49.171Z,30.02
2022-08-06T07:32:32.266Z,28.39
2022-08-06T07:35:11.960Z,27.61
2022-08-06T07:37:50.994Z,26.34
2022-08-06T07:40:28.916Z,26.21
2022-08-06T07:43:04.403Z,26.01
2022-08-06T07:45:54.850Z,25.91
2022-08-06T07:48:28.565Z,25.03
2022-08-06T07:50:58.762Z,25.33
2022-08-06T07:53:52.342Z,24.96
2022-08-06T07:56:23.096Z,25.60
2022-08-06T07:58:57.739Z,25.75
2022-08-06T08:01:32.873Z,26.34
2022-08-06T08:04:35.340Z,27.45
2022-08-06T08:07:13.102Z,28.37
2022-08-06T08:10:02.934Z,28.91
2022-08-06T08:12:37.904Z,29.03
2022-08-06T08:15:18.159Z,28.72
2022-08-06T08:17:56.591Z,28.72
2022-08-06T08:20:34.138Z,28.30
2022-08-06T08:23:05.428Z,27.73
2022-08-06T08:25:40.242Z,27.50
2022-08-06T08:28:15.220Z,26.48
2022-08-06T08:30:49.692Z,25.24
2022-08-06T08:33:20.747Z,24.16
2022-08-06T08:36:00.974Z,23.37
2022-08-06T08:38:31.860Z,22.43
2022-08-06T08:41:07.737Z,22.16
2022-08-06T08:44:00.835Z,23.42
2022-08-06T08:46:31.866Z,23.82
2022-08-06T08:49:04.299Z,23.57
2022-08-06T08:51:42.269Z,22.83
2022-08-06T08:54:17.240Z,22.45
2022-08-06T08:57:07.019Z,22.49
2022-08-06T08:59:57.020Z,23.04
2022-08-06T09:02:28.926Z,23.15
2022-08-06T09:05:00.900Z,23.09
2022-08-06T09:07:36.879Z,23.01
2022-08-06T09:10:11.969Z,23.45
2022-08-06T09:12:47.561Z,24.14
2022-08-06T09:15:19.298Z,24.62
2022-08-06T09:18:26.168Z,25.36
2022-08-06T09:20:41.375Z,26.08
2022-08-06T09:23:19.430Z,26.66
2022-08-06T09:25:52.387Z,27.70
2022-08-06T09:28:37.013Z,27.51
2022-08-06T09:31:10.413Z,27.62
2022-08-06T09:34:28.868Z,29.10
2022-08-06T09:36:56.662Z,29.72
2022-08-06T09:39:46.059Z,29.87
2022-08-06T09:42:43.733Z,29.19
2022-08-06T09:45:18.468Z,28.51
2022-08-06T09:48:04.907Z,26.62
2022-08-06T09:50:45.371Z,26.20
2022-08-06T09:53:21.621Z,25.58
2022-08-06T09:55:53.038Z,25.18
2022-08-06T09:58:32.366Z,24.35
2022-08-06T10:01:22.329Z,25.02
2022-08-06T10:04:03.988Z,24.99
2022-08-06T10:06:55.074Z,24.20
2022-08-06T10:09:44.784Z,23.97
2022-08-06T10:12:26.091Z,24.07
2022-08-06T10:14:57.069Z,24.61
2022-08-06T10:17:49.611Z,24.42
2022-08-06T10:20:22.942Z,25.34
2022-08-06T10:22:57.615Z,25.49
2022-08-06T10:25:30.906Z,26.41
2022-08-06T10:28:08.962Z,27.29
2022-08-06T10:30:39.422Z,27.22
2022-08-06T10:33:22.079Z,27.89
2022-08-06T10:35:56.580Z,27.78
2022-08-06T10:38:34.733Z,27.66
2022-08-06T10:41:59.037Z,28.64
2022-08-06T10:44:06.970Z,28.79
2022-08-06T10:46:36.980Z,29.24
2022-08-06T10:50:29.742Z,30.21
2022-08-06T10:52:02.201Z,30.34
2022-08-06T10:54:35.300Z,30.87
2022-08-06T10:57:06.812Z,30.80
2022-08-06T10:59:41.725Z,31.48
2022-08-06T11:02:20.896Z,31.77
2022-08-06T11:04:58.986Z,31.92
2022-08-06T11:08:09.362Z,32.49
2022-08-06T11:11:06.122Z,32.53
2022-08-06T11:14:03.141Z,32.52
2022-08-06T11:16:36.345Z,32.55
2022-08-06T11:19:09.551Z,32.73
2022-08-06T11:22:02.704Z,32.63
2022-08-06T11:24:37.810Z,32.65
2022-08-06T11:27:36.320Z,32.56
2022-08-06T11:30:26.533Z,32.52
2022-08-06T11:32:56.862Z,32.14
2022-08-06T11:35:49.030Z,32.36
2022-08-06T11:38:56.772Z,32.12
2022-08-06T11:41:55.282Z,33.09
2022-08-06T11:44:25.560Z,32.47
2022-08-06T11:47:14.189Z,32.67
2022-08-06T11:49:46.837Z,33.07
2022-08-06T11:52:46.418Z,32.43
2022-08-06T11:55:22.572Z,32.56
2022-08-06T11:58:25.126Z,32.32
2022-08-06T12:01:03.738Z,33.37
2022-08-06T12:03:52.684Z,33.45
2022-08-06T12:06:26.771Z,33.30
2022-08-06T12:09:15.947Z,33.21
2022-08-06T12:11:54.052Z,33.21
2022-08-06T12:14:49.195Z,32.76
2022-08-06T12:17:21.039Z,32.54
2022-08-06T12:20:02.421Z,32.40
2022-08-06T12:22:34.231Z,32.27
2022-08-06T12:25:11.496Z,32.49
2022-08-06T12:27:50.642Z,32.34
2022-08-06T12:30:36.620Z,32.31
2022-08-06T12:33:12.548Z,32.45
2022-08-06T12:35:53.854Z,32.41
2022-08-06T12:38:28.385Z,32.92
2022-08-06T12:40:59.123Z,32.61
2022-08-06T12:43:45.767Z,32.61
2022-08-06T12:46:20.639Z,32.85
2022-08-06T12:48:53.096Z,32.15
2022-08-06T12:51:27.693Z,32.43
2022-08-06T12:54:02.567Z,32.02
2022-08-06T12:56:37.545Z,32.00
2022-08-06T12:59:23.578Z,32.52
2022-08-06T13:02:11.537Z,32.29
2022-08-06T13:04:49.282Z,33.09
2022-08-06T13:07:20.215Z,33.36
2022-08-06T13:14:02.463Z,33.59
2022-08-06T13:15:48.465Z,33.19
2022-08-06T13:18:41.425Z,32.73
2022-08-06T13:21:20.690Z,32.71
2022-08-06T13:23:53.315Z,32.77
2022-08-06T13:26:26.959Z,32.60
2022-08-06T13:30:30.986Z,32.46
2022-08-06T13:32:11.131Z,32.13
2022-08-06T13:34:58.999Z,31.96
2022-08-06T13:37:54.486Z,31.47
2022-08-06T13:40:41.702Z,31.19
2022-08-06T13:43:11.714Z,31.53
2022-08-06T13:46:15.463Z,31.46
2022-08-06T13:48:49.397Z,31.47
2022-08-06T13:51:27.727Z,31.80
2022-08-06T13:54:04.196Z,31.89
2022-08-06T13:56:49.296Z,32.09
2022-08-06T13:59:39.783Z,32.30
2022-08-06T14:02:11.946Z,32.58
2022-08-06T14:04:50.697Z,32.44
2022-08-06T14:07:23.357Z,33.39
2022-08-06T14:10:10.021Z,32.94
2022-08-06T14:12:41.491Z,33.38
2022-08-06T14:15:14.834Z,33.01
2022-08-06T14:17:45.802Z,32.58
2022-08-06T14:20:19.400Z,31.99
2022-08-06T14:22:58.129Z,31.94
2022-08-06T14:25:52.441Z,31.28
2022-08-06T14:28:21.410Z,31.59
2022-08-06T14:30:52.162Z,31.34
2022-08-06T14:33:36.393Z,32.19
2022-08-06T14:36:08.783Z,32.10
2022-08-06T14:38:42.626Z,31.96
2022-08-06T14:41:50.004Z,32.38
2022-08-06T14:44:27.644Z,32.58
2022-08-06T14:46:59.646Z,32.66
2022-08-06T14:49:33.349Z,32.44
2022-08-06T14:52:24.017Z,32.22
2022-08-06T14:55:06.802Z,32.24
2022-08-06T14:57:41.646Z,32.15
2022-08-06T15:00:34.911Z,31.72
2022-08-06T15:03:13.493Z,31.57
2022-08-06T15:06:04.828Z,30.91
2022-08-06T15:08:34.262Z,31.08
2022-08-06T15:11:18.154Z,30.91
2022-08-06T15:13:51.375Z,31.48
2022-08-06T15:17:01.157Z,31.29
2022-08-06T15:19:20.997Z,31.33
2022-08-06T15:22:00.844Z,31.85
2022-08-06T15:24:30.933Z,32.11
2022-08-06T15:27:09.063Z,32.51
2022-08-06T15:29:38.984Z,33.27
2022-08-06T15:32:18.223Z,33.60
2022-08-06T15:34:49.889Z,34.54
2022-08-06T15:37:52.490Z,34.34
2022-08-06T15:40:12.491Z,34.94
2022-08-06T15:42:45.008Z,34.73
2022-08-06T15:45:49.575Z,34.73
2022-08-06T15:48:05.726Z,35.02
2022-08-06T15:50:43.121Z,34.80
2022-08-06T15:53:23.339Z,34.17
2022-08-06T15:55:53.760Z,34.04
2022-08-06T15:58:28.059Z,33.33
2022-08-06T16:01:03.563Z,32.92
2022-08-06T16:03:37.725Z,32.26
2022-08-06T16:06:26.048Z,31.90
2022-08-06T16:08:59.714Z,32.28
2022-08-06T16:11:48.339Z,32.46
2022-08-06T16:14:33.372Z,32.81
2022-08-06T16:17:09.817Z,32.63
2022-08-06T16:19:49.157Z,32.57
2022-08-06T16:22:19.754Z,32.46
2022-08-06T16:24:51.058Z,32.60
2022-08-06T16:27:22.164Z,33.36
2022-08-06T16:29:59.591Z,33.47
2022-08-06T16:32:29.848Z,33.79
2022-08-06T16:35:01.544Z,33.98
2022-08-06T16:37:32.740Z,33.65
2022-08-06T16:40:05.124Z,34.13
2022-08-06T16:42:36.766Z,33.94
2022-08-06T16:45:14.100Z,34.52
2022-08-06T16:48:18.178Z,34.10
2022-08-06T16:50:36.282Z,33.81
2022-08-06T16:54:08.688Z,33.92
2022-08-06T16:55:57.589Z,33.94
2022-08-06T16:58:34.634Z,33.49
2022-08-06T17:02:13.852Z,33.93
2022-08-06T17:04:03.226Z,34.63
2022-08-06T17:06:35.031Z,34.36
2022-08-06T17:09:16.245Z,34.35
2022-08-06T17:14:38.148Z,35.15
2022-08-06T17:17:37.519Z,35.13
2022-08-06T17:20:09.715Z,35.12
2022-08-06T17:22:44.554Z,35.19
2022-08-06T17:25:21.354Z,35.10
2022-08-06T17:27:57.844Z,35.56
2022-08-06T17:30:27.853Z,35.33
2022-08-06T17:33:00.492Z,35.48
2022-08-06T17:36:31.280Z,35.54
2022-08-06T17:38:19.949Z,35.54
2022-08-06T17:40:49.956Z,35.13
2022-08-06T17:43:22.972Z,35.15
2022-08-06T17:46:25.756Z,35.18
2022-08-06T17:49:00.115Z,35.21
2022-08-06T17:51:32.915Z,35.43
2022-08-06T17:54:26.870Z,35.92
2022-08-06T17:56:53.449Z,35.83
2022-08-06T17:59:29.324Z,35.69
2022-08-06T18:02:01.816Z,35.94
2022-08-06T18:04:38.824Z,36.49
2022-08-06T18:07:18.329Z,36.05
2022-08-06T18:10:17.001Z,36.56
2022-08-06T18:12:49.329Z,36.34
2022-08-06T18:15:20.097Z,36.40
2022-08-06T18:18:04.478Z,36.32
2022-08-06T18:20:42.228Z,36.66
2022-08-06T18:23:20.756Z,36.65
2022-08-06T18:25:56.911Z,36.46
2022-08-06T18:28:33.366Z,37.20
2022-08-06T18:31:09.672Z,36.98
2022-08-06T18:33:42.837Z,36.80
2022-08-06T18:36:33.149Z,37.01
2022-08-06T18:39:03.517Z,37.25
2022-08-06T18:41:57.148Z,37.52
2022-08-06T18:44:27.963Z,37.24
2022-08-06T18:47:03.469Z,37.72
2022-08-06T18:49:50.592Z,37.72
2022-08-06T18:52:24.997Z,38.14
2022-08-06T18:54:56.223Z,38.36
2022-08-06T18:58:04.653Z,38.32
2022-08-06T19:00:24.115Z,38.51
2022-08-06T19:03:04.425Z,38.86
2022-08-06T19:05:44.753Z,38.91
2022-08-06T19:08:29.323Z,39.01
2022-08-06T19:11:05.700Z,39.14
2022-08-06T19:14:17.833Z,39.32
2022-08-06T19:16:29.766Z,39.60
2022-08-06T19:18:59.524Z,39.98
2022-08-06T19:21:29.810Z,40.41
2022-08-06T19:24:06.971Z,40.74
2022-08-06T19:26:51.742Z,40.71
2022-08-06T19:29:56.725Z,40.76
2022-08-06T19:32:12.513Z,40.79
2022-08-06T19:34:59.679Z,40.94
2022-08-06T19:40:35.020Z,41.41
2022-08-06T19:44:26.100Z,41.79
2022-08-06T19:46:29.122Z,41.73
2022-08-06T19:48:47.425Z,41.90
2022-08-06T19:52:03.393Z,42.10
2022-08-06T19:54:08.744Z,42.36
2022-08-06T19:56:42.316Z,42.32
2022-08-06T20:00:53.511Z,42.76
2022-08-06T20:02:08.825Z,42.59
2022-08-06T20:04:45.589Z,42.74
2022-08-06T20:07:24.574Z,43.14
2022-08-06T20:10:01.362Z,43.17
2022-08-06T20:12:38.642Z,43.37
2022-08-06T20:15:11.744Z,43.60
2022-08-06T20:17:49.339Z,43.69
2022-08-06T20:20:29.104Z,44.22
2022-08-06T20:23:08.719Z,44.28
2022-08-06T20:26:08.959Z,44.65
2022-08-06T20:29:10.606Z,45.08
2022-08-06T20:31:25.511Z,44.96
2022-08-06T20:34:02.642Z,45.42
2022-08-06T20:36:33.963Z,45.39
2022-08-06T20:39:03.929Z,45.41
2022-08-06T20:42:03.452Z,45.98
2022-08-06T20:44:27.837Z,45.86
2022-08-06T20:47:45.403Z,46.23
2022-08-06T20:50:03.111Z,46.32
2022-08-06T20:52:34.758Z,46.36
2022-08-06T20:55:04.629Z,46.59
2022-08-06T20:57:41.814Z,46.80
2022-08-06T21:00:28.016Z,47.24
2022-08-06T21:03:28.435Z,47.47
2022-08-06T21:05:51.952Z,47.42
2022-08-06T21:08:26.337Z,48.03
2022-08-06T21:10:57.971Z,48.14
2022-08-06T21:13:36.229Z,48.32
2022-08-06T21:16:28.843Z,48.75
2022-08-06T21:19:02.279Z,49.04
2022-08-06T21:21:32.392Z,49.13
2022-08-06T21:24:03.417Z,49.47
2022-08-06T21:26:35.398Z,49.56
2022-08-06T21:29:41.758Z,49.92
2022-08-06T21:32:00.425Z,50.05
2022-08-06T21:34:30.707Z,50.23
2022-08-06T21:37:02.837Z,50.42
2022-08-06T21:39:56.003Z,50.36
2022-08-06T21:42:27.974Z,50.93
2022-08-06T21:44:59.535Z,51.06
2022-08-06T21:47:37.893Z,51.24
2022-08-06T21:50:19.880Z,51.84
2022-08-06T21:52:56.106Z,51.80
2022-08-06T21:56:38.510Z,52.21
2022-08-06T21:58:15.388Z,52.40
2022-08-06T22:00:54.094Z,52.18
2022-08-06T22:04:36.685Z,52.45
2022-08-06T22:06:37.479Z,52.58
2022-08-06T22:09:07.883Z,52.59
2022-08-06T22:12:38.435Z,53.20
2022-08-06T22:14:36.254Z,53.05
2022-08-06T22:17:06.694Z,53.55
2022-08-06T22:19:42.912Z,53.36
2022-08-06T22:22:13.274Z,53.53
2022-08-06T22:24:51.375Z,53.74
2022-08-06T22:27:21.508Z,53.91
2022-08-06T22:30:04.468Z,54.17
2022-08-06T22:32:36.314Z,54.12
2022-08-06T22:35:11.176Z,54.09
2022-08-06T22:38:19.828Z,54.14
2022-08-06T22:40:31.298Z,54.35
2022-08-06T22:43:17.516Z,54.23
2022-08-06T22:46:02.576Z,54.37
2022-08-06T22:48:36.509Z,54.48
2022-08-06T22:51:10.704Z,54.67
2022-08-06T22:54:27.438Z,54.50
2022-08-06T22:56:36.605Z,54.68
2022-08-06T22:59:20.448Z,54.57
2022-08-06T23:02:08.090Z,54.63
2022-08-06T23:04:46.518Z,54.70
2022-08-06T23:07:25.729Z,54.97
2022-08-06T23:09:58.713Z,54.64
2022-08-06T23:12:31.331Z,54.84
2022-08-06T23:15:19.901Z,55.06
2022-08-06T23:18:00.172Z,54.98
2022-08-06T23:20:32.874Z,55.35
2022-08-06T23:23:07.547Z,55.35
2022-08-06T23:26:00.636Z,55.22
2022-08-06T23:28:29.265Z,55.29
2022-08-06T23:30:59.186Z,55.43
2022-08-06T23:33:38.522Z,55.36
2022-08-06T23:36:14.703Z,55.62
2022-08-06T23:38:50.849Z,55.83
2022-08-06T23:41:24.385Z,55.85
2022-08-06T23:44:18.271Z,55.82
2022-08-06T23:46:51.016Z,55.87
2022-08-06T23:49:27.512Z,55.94
2022-08-06T23:52:03.405Z,56.22
2022-08-06T23:54:36.832Z,56.33
2022-08-06T23:57:09.663Z,56.37
2022-08-06T23:59:47.201Z,56.28
